Seacrest, Florida
Current Conditions -  °F | °C
As of 5:53 AM on Thursday 27 Nov 2014 (Local Time) from KECP Reporting Station
Clear Clear  
Wind Chill:   Ceiling: Unl
Heat Index:   Visibility: 10mi
Dew Point:   Wind: 3mph
Humidity: 80%   Direction: 300°WNW
Pressure: 30.28"   Gusts: NA
Location:  30.3525°N, 85.9093°W
Report Text: KECP 271153Z 30003KT 10SM CLR 08/05 A3028 RMK AO2 SLP265 T00830050 10133 20078 53021
Loading
Personal Weather Stations






























Interactive Weather Map New forecast layout! Learn more

10-Day Weather Forecast

Advertisements
Track Severe Weather on mobile